Havbugvin — XPYL — position and weather

sailwx.info

Track history (hours):
 
Tides and Currents Weather Stations Pressure Air Temp Water Temp Dewpoint Dewpoint Depression Visibility Wind Speed Wind Dir Waves Ship Positions

Havbugvin

Last reported at 2014-Jul-23 11:29 UTC. Time now 2014-Jul-29 08:47 UTC.
Position N 62°02' W 007°05'.

Length 38 m.

Type: Fishing. MMSI: 231181000.

Date/timePositionNaut miles runAvg speedWind from/ knotsBaromVisibWave heightAir tempDewpointWater temp
2014-Jul-23 11:29N 62°02' W 007°05'910.0
2014-Jul-23 10:33N 61°57' W 006°49'4 3.7
2014-Jul-23 09:34N 62°00' W 006°46'0 0.0
2014-Jul-23 08:33N 62°00' W 006°46'0 0.0
2014-Jul-23 07:33N 62°00' W 006°46'0 0.0
2014-Jul-23 06:33N 62°00' W 006°46'0 0.0
2014-Jul-23 05:33N 62°00' W 006°46'0 0.0
2014-Jul-23 04:33N 62°00' W 006°46'0 0.0
2014-Jul-23 03:33N 62°00' W 006°46'3 3.4
2014-Jul-23 02:33N 61°58' W 006°42'5 5.0
2014-Jul-23 01:30N 61°55' W 006°51'5 4.6
2014-Jul-23 00:29N 61°55' W 007°01'  
2014-Jul-15 22:09N 61°55' W 006°52'3 4.5
2014-Jul-15 21:34N 61°56' W 006°47'4 3.8
2014-Jul-15 20:33N 61°59' W 006°43'2 1.7
2014-Jul-15 19:33N 62°00' W 006°46'0 0.0
2014-Jul-15 18:34N 62°00' W 006°46'0 0.0
2014-Jul-15 17:33N 62°00' W 006°46'0 0.0
2014-Jul-15 16:34N 62°00' W 006°46'0 0.1
2014-Jul-15 15:33N 62°00' W 006°46'0 0.0
2014-Jul-15 14:34N 62°00' W 006°46'0 0.0
2014-Jul-15 13:34N 62°00' W 006°46'0 0.0
2014-Jul-15 12:33N 62°00' W 006°46'0 0.0
2014-Jul-15 11:34N 62°00' W 006°46'0 0.0
2014-Jul-15 10:33N 62°00' W 006°46'0 0.0
2014-Jul-15 09:33N 62°00' W 006°46'0 0.0
2014-Jul-15 08:33N 62°00' W 006°46'0 0.0
2014-Jul-15 07:33N 62°00' W 006°46'0 0.0
2014-Jul-15 06:33N 62°00' W 006°46'0 0.0
2014-Jul-15 05:33N 62°00' W 006°46'0 0.0
2014-Jul-15 04:34N 62°00' W 006°46'0 0.0
2014-Jul-15 03:33N 62°00' W 006°46'0 0.0
2014-Jul-15 02:33N 62°00' W 006°46'0 0.0
2014-Jul-15 01:33N 62°00' W 006°46'0 0.0
2014-Jul-15 00:33N 62°00' W 006°46'0 0.0
2014-Jul-14 23:33N 62°00' W 006°46'0 0.0
2014-Jul-14 22:33N 62°00' W 006°46'0 0.0
2014-Jul-14 21:34N 62°00' W 006°46'0 0.0
2014-Jul-14 20:33N 62°00' W 006°46'0 0.0
2014-Jul-14 19:34N 62°00' W 006°46'0 0.0
2014-Jul-14 18:33N 62°00' W 006°46'0 0.0
2014-Jul-14 17:33N 62°00' W 006°46'0 0.0
2014-Jul-14 16:34N 62°00' W 006°46'0 0.0
2014-Jul-14 15:33N 62°00' W 006°46'0 0.0
2014-Jul-14 14:34N 62°00' W 006°46'0 0.0
2014-Jul-14 13:33N 62°00' W 006°46'0 0.0
2014-Jul-14 12:33N 62°00' W 006°46'0 0.0
2014-Jul-14 11:33N 62°00' W 006°46'0 0.0
2014-Jul-14 10:33N 62°00' W 006°46'2 2.2
2014-Jul-14 09:33N 61°59' W 006°43'8 6.8
2014-Jul-14 08:21N 61°57' W 006°60'8 8.9
2014-Jul-14 07:24N 61°58' W 007°17'  
Track history (hours):
 
Tides and Currents Weather Stations Pressure Air Temp Water Temp Dewpoint Dewpoint Depression Visibility Wind Speed Wind Dir Waves Ship Positions

Havbugvin

Last reported at 2014-Jul-23 11:29 UTC. Time now 2014-Jul-29 08:47 UTC.
Position N 62°02' W 007°05'.

Length 38 m.

Type: Fishing. MMSI: 231181000.

Date/timePositionNaut miles runAvg speedWind from/ knotsBaromVisibWave heightAir tempDewpointWater temp
2014-Jul-23 11:29N 62°02' W 007°05'910.0
2014-Jul-23 10:33N 61°57' W 006°49'4 3.7
2014-Jul-23 09:34N 62°00' W 006°46'0 0.0
2014-Jul-23 08:33N 62°00' W 006°46'0 0.0
2014-Jul-23 07:33N 62°00' W 006°46'0 0.0
2014-Jul-23 06:33N 62°00' W 006°46'0 0.0
2014-Jul-23 05:33N 62°00' W 006°46'0 0.0
2014-Jul-23 04:33N 62°00' W 006°46'0 0.0
2014-Jul-23 03:33N 62°00' W 006°46'3 3.4
2014-Jul-23 02:33N 61°58' W 006°42'5 5.0
2014-Jul-23 01:30N 61°55' W 006°51'5 4.6
2014-Jul-23 00:29N 61°55' W 007°01'  
2014-Jul-15 22:09N 61°55' W 006°52'3 4.5
2014-Jul-15 21:34N 61°56' W 006°47'4 3.8
2014-Jul-15 20:33N 61°59' W 006°43'2 1.7
2014-Jul-15 19:33N 62°00' W 006°46'0 0.0
2014-Jul-15 18:34N 62°00' W 006°46'0 0.0
2014-Jul-15 17:33N 62°00' W 006°46'0 0.0
2014-Jul-15 16:34N 62°00' W 006°46'0 0.1
2014-Jul-15 15:33N 62°00' W 006°46'0 0.0
2014-Jul-15 14:34N 62°00' W 006°46'0 0.0
2014-Jul-15 13:34N 62°00' W 006°46'0 0.0
2014-Jul-15 12:33N 62°00' W 006°46'0 0.0
2014-Jul-15 11:34N 62°00' W 006°46'0 0.0
2014-Jul-15 10:33N 62°00' W 006°46'0 0.0
2014-Jul-15 09:33N 62°00' W 006°46'0 0.0
2014-Jul-15 08:33N 62°00' W 006°46'0 0.0
2014-Jul-15 07:33N 62°00' W 006°46'0 0.0
2014-Jul-15 06:33N 62°00' W 006°46'0 0.0
2014-Jul-15 05:33N 62°00' W 006°46'0 0.0
2014-Jul-15 04:34N 62°00' W 006°46'0 0.0
2014-Jul-15 03:33N 62°00' W 006°46'0 0.0
2014-Jul-15 02:33N 62°00' W 006°46'0 0.0
2014-Jul-15 01:33N 62°00' W 006°46'0 0.0
2014-Jul-15 00:33N 62°00' W 006°46'0 0.0
2014-Jul-14 23:33N 62°00' W 006°46'0 0.0
2014-Jul-14 22:33N 62°00' W 006°46'0 0.0
2014-Jul-14 21:34N 62°00' W 006°46'0 0.0
2014-Jul-14 20:33N 62°00' W 006°46'0 0.0
2014-Jul-14 19:34N 62°00' W 006°46'0 0.0
2014-Jul-14 18:33N 62°00' W 006°46'0 0.0
2014-Jul-14 17:33N 62°00' W 006°46'0 0.0
2014-Jul-14 16:34N 62°00' W 006°46'0 0.0
2014-Jul-14 15:33N 62°00' W 006°46'0 0.0
2014-Jul-14 14:34N 62°00' W 006°46'0 0.0
2014-Jul-14 13:33N 62°00' W 006°46'0 0.0
2014-Jul-14 12:33N 62°00' W 006°46'0 0.0
2014-Jul-14 11:33N 62°00' W 006°46'0 0.0
2014-Jul-14 10:33N 62°00' W 006°46'2 2.2
2014-Jul-14 09:33N 61°59' W 006°43'8 6.8
2014-Jul-14 08:21N 61°57' W 006°60'8 8.9
2014-Jul-14 07:24N 61°58' W 007°17'  

Dump ship's entire track history